Time,TemperatureF,DewpointF,PressureIn,WindDirection,WindDirectionDegrees,WindSpeedMPH,WindSpeedGustMPH,Humidity,HourlyPrecipIn,Conditions,Clouds,dailyrainin,SoftwareType,DateUTC
2013-07-22 00:09:00,74.1,72.7,29.91,NE,45,0.0,0.0,95,0.00,,,0.00,meteohub,2013-07-22 04:09:00,
2013-07-22 00:19:00,74.1,72.7,29.91,NE,45,0.0,0.0,95,0.00,,,0.00,meteohub,2013-07-22 04:19:00,
2013-07-22 00:29:00,73.9,72.5,29.91,NE,45,0.0,0.0,95,0.00,,,0.00,meteohub,2013-07-22 04:29:00,
2013-07-22 00:39:00,73.9,72.5,29.91,NE,45,0.0,0.0,95,0.00,,,0.00,meteohub,2013-07-22 04:39:00,
2013-07-22 00:50:00,73.9,72.5,29.91,NE,45,0.0,0.0,95,0.00,,,0.00,meteohub,2013-07-22 04:50:00,
2013-07-22 01:00:00,73.8,72.3,29.91,NE,45,0.0,0.0,95,0.00,,,0.00,meteohub,2013-07-22 05:00:00,
2013-07-22 01:10:00,73.6,72.1,29.91,NE,45,0.0,0.0,95,0.00,,,0.00,meteohub,2013-07-22 05:10:00,
2013-07-22 01:21:00,73.6,72.1,29.91,NE,45,0.0,0.0,95,0.00,,,0.00,meteohub,2013-07-22 05:21:00,
2013-07-22 01:31:00,73.2,71.8,29.91,NE,45,0.0,0.0,95,0.00,,,0.00,meteohub,2013-07-22 05:31:00,
2013-07-22 01:41:00,73.0,71.6,29.91,NE,45,0.0,0.0,95,0.00,,,0.00,meteohub,2013-07-22 05:41:00,
2013-07-22 01:52:00,73.0,71.6,29.91,NE,45,0.0,0.0,95,0.00,,,0.00,meteohub,2013-07-22 05:52:00,
2013-07-22 02:02:00,73.0,71.8,29.91,NE,45,0.0,0.0,96,0.00,,,0.00,meteohub,2013-07-22 06:02:00,
2013-07-22 02:13:00,73.0,71.8,29.91,NE,45,0.0,0.0,96,0.00,,,0.00,meteohub,2013-07-22 06:13:00,
2013-07-22 02:23:00,73.0,71.8,29.90,NE,45,0.0,0.0,96,0.00,,,0.00,meteohub,2013-07-22 06:23:00,
2013-07-22 02:33:00,73.0,71.8,29.90,NE,45,0.0,0.0,96,0.00,,,0.00,meteohub,2013-07-22 06:33:00,
2013-07-22 02:43:00,73.0,71.8,29.91,NE,45,0.0,0.0,96,0.00,,,0.00,meteohub,2013-07-22 06:43:00,
2013-07-22 02:53:00,73.0,71.8,29.90,NE,45,0.0,0.0,96,0.00,,,0.00,meteohub,2013-07-22 06:53:00,
2013-07-22 03:04:00,72.9,71.6,29.89,NE,45,0.0,0.0,96,0.00,,,0.00,meteohub,2013-07-22 07:04:00,
2013-07-22 03:14:00,72.7,71.4,29.90,NE,45,0.0,0.0,96,0.00,,,0.00,meteohub,2013-07-22 07:14:00,
2013-07-22 03:24:00,72.5,71.2,29.89,NE,45,0.0,0.0,96,0.00,,,0.00,meteohub,2013-07-22 07:24:00,
2013-07-22 03:34:00,72.3,71.1,29.89,NE,45,0.0,0.0,96,0.00,,,0.00,meteohub,2013-07-22 07:34:00,
2013-07-22 03:45:00,72.1,70.9,29.89,NE,45,0.0,0.0,96,0.00,,,0.00,meteohub,2013-07-22 07:45:00,
2013-07-22 03:55:00,72.1,70.7,29.89,NE,45,0.0,0.0,95,0.00,,,0.00,meteohub,2013-07-22 07:55:00,
2013-07-22 04:06:00,72.1,70.9,29.89,NE,45,0.0,0.0,96,0.00,,,0.00,meteohub,2013-07-22 08:06:00,
2013-07-22 04:16:00,72.1,70.9,29.89,NE,45,0.0,0.0,96,0.00,,,0.00,meteohub,2013-07-22 08:16:00,
2013-07-22 04:26:00,72.0,70.7,29.89,NE,45,0.0,0.0,96,0.00,,,0.00,meteohub,2013-07-22 08:26:00,
2013-07-22 04:37:00,72.1,70.9,29.89,NE,45,0.0,0.0,96,0.00,,,0.00,meteohub,2013-07-22 08:37:00,
2013-07-22 04:47:00,72.1,70.9,29.88,NE,45,0.0,0.0,96,0.00,,,0.00,meteohub,2013-07-22 08:47:00,
2013-07-22 04:58:00,72.1,70.9,29.88,NE,45,0.0,0.0,96,0.00,,,0.00,meteohub,2013-07-22 08:58:00,
2013-07-22 05:08:00,72.1,70.9,29.89,NE,45,0.0,0.0,96,0.00,,,0.00,meteohub,2013-07-22 09:08:00,
2013-07-22 05:18:00,72.1,70.9,29.89,NE,45,0.0,0.0,96,0.00,,,0.00,meteohub,2013-07-22 09:18:00,
2013-07-22 05:28:00,72.1,70.9,29.89,NE,45,0.0,0.0,96,0.00,,,0.00,meteohub,2013-07-22 09:28:00,
2013-07-22 05:38:00,72.1,70.9,29.88,NE,45,0.0,0.0,96,0.00,,,0.00,meteohub,2013-07-22 09:38:00,
2013-07-22 05:49:00,72.1,70.9,29.88,NE,45,0.0,0.0,96,0.00,,,0.00,meteohub,2013-07-22 09:49:00,
2013-07-22 05:59:00,72.1,70.9,29.89,NE,45,0.0,0.0,96,0.00,,,0.00,meteohub,2013-07-22 09:59:00,
2013-07-22 06:10:00,72.1,70.9,29.88,NNE,23,0.0,0.0,96,0.00,,,0.00,meteohub,2013-07-22 10:10:00,
2013-07-22 06:20:00,72.1,70.9,29.89,NNE,23,0.0,0.0,96,0.00,,,0.00,meteohub,2013-07-22 10:20:00,
2013-07-22 06:30:00,72.1,70.9,29.89,NNE,23,0.0,0.0,96,0.00,,,0.00,meteohub,2013-07-22 10:30:00,
2013-07-22 06:41:00,72.3,71.1,29.89,NNE,23,0.0,0.0,96,0.00,,,0.00,meteohub,2013-07-22 10:41:00,
2013-07-22 06:51:00,72.7,71.4,29.90,NNE,23,0.0,0.0,96,0.00,,,0.00,meteohub,2013-07-22 10:51:00,
2013-07-22 07:02:00,72.9,71.6,29.90,NNE,23,0.0,0.0,96,0.00,,,0.00,meteohub,2013-07-22 11:02:00,
2013-07-22 07:12:00,72.9,71.6,29.90,NNE,23,0.0,0.0,96,0.00,,,0.00,meteohub,2013-07-22 11:12:00,
2013-07-22 07:22:00,72.9,71.6,29.90,NNE,23,0.0,0.0,96,0.00,,,0.00,meteohub,2013-07-22 11:22:00,
2013-07-22 07:33:00,72.9,71.6,29.90,WNW,293,0.0,0.0,96,0.00,,,0.00,meteohub,2013-07-22 11:33:00,
2013-07-22 07:43:00,73.2,72.0,29.91,ESE,113,0.0,0.0,96,0.00,,,0.00,meteohub,2013-07-22 11:43:00,
2013-07-22 07:53:00,73.2,72.0,29.91,ESE,113,0.0,0.0,96,0.00,,,0.00,meteohub,2013-07-22 11:53:00,
2013-07-22 08:03:00,73.8,72.5,29.91,ESE,113,0.0,0.0,96,0.00,,,0.00,meteohub,2013-07-22 12:03:00,
2013-07-22 08:14:00,74.1,72.9,29.91,ESE,113,0.0,0.0,96,0.00,,,0.00,meteohub,2013-07-22 12:14:00,
2013-07-22 08:24:00,73.9,72.7,29.91,ESE,113,0.0,0.0,96,0.00,,,0.00,meteohub,2013-07-22 12:24:00,
2013-07-22 08:35:00,73.9,72.7,29.91,ESE,113,0.0,0.0,96,0.00,,,0.00,meteohub,2013-07-22 12:35:00,
2013-07-22 08:45:00,74.1,72.9,29.91,ESE,113,0.0,0.0,96,0.00,,,0.00,meteohub,2013-07-22 12:45:00,
2013-07-22 08:55:00,74.3,73.0,29.91,ESE,113,0.0,0.0,96,0.00,,,0.00,meteohub,2013-07-22 12:55:00,
2013-07-22 09:06:00,74.7,73.4,29.91,ESE,113,0.0,0.0,96,0.00,,,0.00,meteohub,2013-07-22 13:06:00,
2013-07-22 09:16:00,74.8,73.2,29.91,ESE,113,0.0,0.0,95,0.00,,,0.00,meteohub,2013-07-22 13:16:00,
2013-07-22 09:26:00,75.2,73.6,29.91,ESE,113,0.0,0.0,95,0.00,,,0.00,meteohub,2013-07-22 13:26:00,
2013-07-22 09:36:00,75.7,73.9,29.91,ESE,113,0.0,0.0,94,0.00,,,0.00,meteohub,2013-07-22 13:36:00,
2013-07-22 09:47:00,75.9,72.9,29.91,South,180,0.0,0.0,90,0.00,,,0.00,meteohub,2013-07-22 13:47:00,
2013-07-22 09:57:00,76.5,73.0,29.91,South,180,0.0,0.0,89,0.00,,,0.00,meteohub,2013-07-22 13:57:00,
2013-07-22 10:08:00,77.2,73.8,29.91,SSE,158,0.0,0.0,89,0.00,,,0.00,meteohub,2013-07-22 14:08:00,
2013-07-22 10:18:00,77.5,73.4,29.91,SSE,158,0.0,0.0,87,0.00,,,0.00,meteohub,2013-07-22 14:18:00,
2013-07-22 10:29:00,77.7,73.6,29.91,SSE,158,0.0,0.0,87,0.00,,,0.00,meteohub,2013-07-22 14:29:00,
2013-07-22 10:39:00,78.1,74.5,29.90,SSE,158,0.0,0.0,88,0.00,,,0.00,meteohub,2013-07-22 14:39:00,
2013-07-22 10:49:00,78.4,73.9,29.91,SSE,158,0.0,0.0,86,0.00,,,0.00,meteohub,2013-07-22 14:49:00,
2013-07-22 11:00:00,79.5,74.3,29.90,SSE,158,0.0,0.0,84,0.00,,,0.00,meteohub,2013-07-22 15:00:00,
2013-07-22 11:10:00,79.5,74.1,29.91,SSE,158,0.0,0.0,83,0.00,,,0.00,meteohub,2013-07-22 15:10:00,
2013-07-22 11:20:00,79.7,75.2,29.90,North,0,0.0,0.0,86,0.00,,,0.00,meteohub,2013-07-22 15:20:00,
2013-07-22 11:30:00,80.4,75.2,29.90,West,270,0.0,0.0,84,0.00,,,0.00,meteohub,2013-07-22 15:30:00,
2013-07-22 11:41:00,80.8,74.7,29.90,West,270,0.0,0.0,81,0.00,,,0.00,meteohub,2013-07-22 15:41:00,
2013-07-22 11:51:00,81.1,75.6,29.89,West,270,0.0,0.0,82,0.00,,,0.00,meteohub,2013-07-22 15:51:00,
2013-07-22 12:01:00,81.9,74.7,29.90,West,270,0.0,0.0,79,0.00,,,0.00,meteohub,2013-07-22 16:01:00,
2013-07-22 12:11:00,82.8,75.2,29.89,SE,135,0.0,0.0,78,0.00,,,0.00,meteohub,2013-07-22 16:11:00,
2013-07-22 12:21:00,82.9,74.7,29.88,SE,135,0.0,0.0,76,0.00,,,0.00,meteohub,2013-07-22 16:21:00,
2013-07-22 12:31:00,84.6,75.0,29.88,SSW,203,0.0,0.0,73,0.00,,,0.00,meteohub,2013-07-22 16:31:00,
2013-07-22 12:42:00,85.5,75.4,29.88,South,180,0.0,0.0,72,0.00,,,0.00,meteohub,2013-07-22 16:42:00,
2013-07-22 12:52:00,86.5,75.0,29.88,SSE,158,0.0,0.0,68,0.00,,,0.00,meteohub,2013-07-22 16:52:00,
2013-07-22 13:02:00,85.8,75.6,29.87,SSE,158,0.0,0.0,71,0.00,,,0.00,meteohub,2013-07-22 17:02:00,
2013-07-22 13:13:00,86.2,75.9,29.87,ESE,113,0.0,0.0,71,0.00,,,0.00,meteohub,2013-07-22 17:13:00,
2013-07-22 13:23:00,87.4,75.6,29.86,ESE,113,0.0,0.0,68,0.00,,,0.00,meteohub,2013-07-22 17:23:00,
2013-07-22 13:34:00,87.3,75.6,29.86,SSE,158,0.0,0.0,68,0.00,,,0.00,meteohub,2013-07-22 17:34:00,
2013-07-22 13:44:00,87.4,75.7,29.85,East,90,0.0,0.0,68,0.00,,,0.00,meteohub,2013-07-22 17:44:00,
2013-07-22 13:55:00,87.3,76.3,29.85,ENE,68,0.0,0.0,70,0.00,,,0.00,meteohub,2013-07-22 17:55:00,
2013-07-22 14:05:00,85.6,75.6,29.85,ENE,68,0.0,0.0,71,0.00,,,0.00,meteohub,2013-07-22 18:05:00,
2013-07-22 14:15:00,85.5,76.5,29.85,SE,135,0.0,0.0,74,0.00,,,0.00,meteohub,2013-07-22 18:15:00,
2013-07-22 14:26:00,85.8,74.5,29.84,SW,225,0.0,0.0,69,0.00,,,0.00,meteohub,2013-07-22 18:26:00,
2013-07-22 14:37:00,85.6,75.0,29.84,SW,225,0.0,0.0,70,0.00,,,0.00,meteohub,2013-07-22 18:37:00,
2013-07-22 14:47:00,86.9,76.8,29.83,SSE,158,0.0,0.0,72,0.00,,,0.00,meteohub,2013-07-22 18:47:00,
2013-07-22 14:59:00,88.3,75.4,29.83,SE,135,0.0,0.0,65,0.00,,,0.00,meteohub,2013-07-22 18:59:00,
2013-07-22 15:08:00,88.9,76.5,29.82,SE,135,0.0,0.0,67,0.00,,,0.00,meteohub,2013-07-22 19:08:00,
2013-07-22 15:18:00,89.1,75.6,29.82,SE,135,0.0,0.0,64,0.00,,,0.00,meteohub,2013-07-22 19:18:00,
2013-07-22 15:29:00,90.0,75.7,29.81,SSW,203,0.0,0.0,63,0.00,,,0.00,meteohub,2013-07-22 19:29:00,
2013-07-22 15:39:00,89.4,75.2,29.81,ESE,113,0.0,0.0,63,0.00,,,0.00,meteohub,2013-07-22 19:39:00,
2013-07-22 15:51:00,89.4,76.3,29.80,SSE,158,0.0,0.0,65,0.00,,,0.00,meteohub,2013-07-22 19:51:00,
2013-07-22 16:01:00,89.2,75.2,29.80,SSE,158,0.0,0.0,63,0.00,,,0.00,meteohub,2013-07-22 20:01:00,
2013-07-22 16:10:00,88.3,75.7,29.79,SE,135,0.0,0.0,66,0.00,,,0.00,meteohub,2013-07-22 20:10:00,
2013-07-22 16:20:00,88.9,75.9,29.79,WSW,248,0.0,0.0,65,0.00,,,0.00,meteohub,2013-07-22 20:20:00,
2013-07-22 16:31:00,89.8,76.1,29.79,SE,135,0.0,0.0,64,0.00,,,0.00,meteohub,2013-07-22 20:31:00,
2013-07-22 16:41:00,88.5,75.7,29.78,SW,225,0.0,0.0,66,0.00,,,0.00,meteohub,2013-07-22 20:41:00,
2013-07-22 16:51:00,87.3,75.6,29.78,SSE,158,0.0,0.0,68,0.00,,,0.00,meteohub,2013-07-22 20:51:00,
2013-07-22 17:02:00,86.7,75.0,29.78,SW,225,0.0,0.0,68,0.00,,,0.00,meteohub,2013-07-22 21:02:00,
2013-07-22 17:12:00,87.1,75.6,29.78,West,270,0.0,0.0,68,0.00,,,0.00,meteohub,2013-07-22 21:12:00,
2013-07-22 17:22:00,87.1,75.9,29.78,East,90,0.0,0.0,69,0.00,,,0.00,meteohub,2013-07-22 21:22:00,
2013-07-22 17:33:00,86.5,75.7,29.77,ESE,113,0.0,0.0,70,0.00,,,0.00,meteohub,2013-07-22 21:33:00,
2013-07-22 17:43:00,85.6,75.6,29.77,SW,225,0.0,0.0,72,0.00,,,0.00,meteohub,2013-07-22 21:43:00,
2013-07-22 17:54:00,85.8,75.2,29.77,ESE,113,0.0,0.0,70,0.00,,,0.00,meteohub,2013-07-22 21:54:00,
2013-07-22 18:04:00,85.8,75.6,29.76,SSE,158,0.0,0.0,71,0.00,,,0.00,meteohub,2013-07-22 22:04:00,
2013-07-22 18:15:00,85.6,75.6,29.76,ENE,68,0.0,0.0,72,0.00,,,0.00,meteohub,2013-07-22 22:15:00,
2013-07-22 18:25:00,85.3,75.6,29.76,ENE,68,0.0,0.0,73,0.00,,,0.00,meteohub,2013-07-22 22:25:00,
2013-07-22 18:35:00,84.9,75.7,29.76,NE,45,0.0,0.0,74,0.00,,,0.00,meteohub,2013-07-22 22:35:00,
2013-07-22 18:45:00,84.7,75.7,29.75,East,90,0.0,0.0,74,0.00,,,0.00,meteohub,2013-07-22 22:45:00,
2013-07-22 18:56:00,84.6,75.6,29.75,WSW,248,0.0,0.0,74,0.00,,,0.00,meteohub,2013-07-22 22:56:00,
2013-07-22 19:06:00,84.2,75.7,29.75,East,90,0.0,0.0,76,0.00,,,0.00,meteohub,2013-07-22 23:06:00,
2013-07-22 19:16:00,83.8,75.4,29.75,SW,225,0.0,0.0,76,0.00,,,0.00,meteohub,2013-07-22 23:16:00,
2013-07-22 19:26:00,83.5,75.6,29.75,SW,225,0.0,0.0,77,0.00,,,0.00,meteohub,2013-07-22 23:26:00,
2013-07-22 19:37:00,83.5,75.7,29.75,East,90,0.0,0.0,77,0.00,,,0.00,meteohub,2013-07-22 23:37:00,
2013-07-22 19:47:00,83.1,75.2,29.75,East,90,0.0,0.0,77,0.00,,,0.00,meteohub,2013-07-22 23:47:00,
2013-07-22 19:57:00,83.1,75.2,29.76,SW,225,0.0,0.0,77,0.00,,,0.00,meteohub,2013-07-22 23:57:00,
2013-07-22 20:08:00,82.9,75.2,29.76,East,90,0.0,0.0,77,0.00,,,0.00,meteohub,2013-07-23 00:08:00,
2013-07-22 20:18:00,82.9,75.4,29.76,East,90,0.0,0.0,78,0.00,,,0.00,meteohub,2013-07-23 00:18:00,
2013-07-22 20:29:00,82.6,75.0,29.76,NE,45,0.0,0.0,78,0.00,,,0.00,meteohub,2013-07-23 00:29:00,
2013-07-22 20:39:00,82.2,75.0,29.76,NE,45,0.0,0.0,79,0.00,,,0.00,meteohub,2013-07-23 00:39:00,
2013-07-22 20:49:00,82.0,74.8,29.76,NE,45,0.0,0.0,79,0.00,,,0.00,meteohub,2013-07-23 00:49:00,
2013-07-22 20:59:00,81.9,75.0,29.76,East,90,0.0,0.0,80,0.00,,,0.00,meteohub,2013-07-23 00:59:00,
2013-07-22 21:10:00,81.7,75.2,29.75,East,90,0.0,0.0,81,0.00,,,0.00,meteohub,2013-07-23 01:10:00,
2013-07-22 21:20:00,81.5,75.0,29.76,East,90,0.0,0.0,81,0.00,,,0.00,meteohub,2013-07-23 01:20:00,
2013-07-22 21:30:00,81.3,75.4,29.76,East,90,0.0,0.0,82,0.00,,,0.00,meteohub,2013-07-23 01:30:00,
2013-07-22 21:41:00,81.1,75.6,29.75,East,90,0.0,0.0,83,0.00,,,0.00,meteohub,2013-07-23 01:41:00,
2013-07-22 21:51:00,80.8,75.6,29.76,East,90,0.0,0.0,84,0.00,,,0.00,meteohub,2013-07-23 01:51:00,
2013-07-22 22:01:00,80.4,75.6,29.76,East,90,0.0,0.0,85,0.00,,,0.00,meteohub,2013-07-23 02:01:00,
2013-07-22 22:11:00,80.1,75.0,29.76,East,90,0.0,0.0,84,0.00,,,0.00,meteohub,2013-07-23 02:11:00,
2013-07-22 22:22:00,80.1,75.2,29.76,ESE,113,0.0,0.0,85,0.00,,,0.00,meteohub,2013-07-23 02:22:00,
2013-07-22 22:32:00,80.1,73.6,29.77,ESE,113,0.0,0.0,80,0.00,,,0.00,meteohub,2013-07-23 02:32:00,
2013-07-22 22:42:00,78.8,70.5,29.78,SSW,203,0.0,0.0,76,0.00,,,0.00,meteohub,2013-07-23 02:42:00,
2013-07-22 22:53:00,77.0,70.0,29.78,SSW,203,0.0,0.0,79,0.00,,,0.00,meteohub,2013-07-23 02:53:00,
2013-07-22 23:03:00,75.2,70.3,29.77,SSW,203,0.0,0.0,84,0.00,,,0.00,meteohub,2013-07-23 03:03:00,
2013-07-22 23:13:00,74.1,70.3,29.77,SSW,203,0.0,0.0,88,0.00,,,0.00,meteohub,2013-07-23 03:13:00,
2013-07-22 23:24:00,73.4,70.0,29.77,SSW,203,0.0,0.0,89,0.01,,,0.01,meteohub,2013-07-23 03:24:00,
2013-07-22 23:34:00,73.0,70.3,29.77,SSW,203,0.0,0.0,91,0.06,,,0.06,meteohub,2013-07-23 03:34:00,
2013-07-22 23:44:00,72.7,70.2,29.77,SSW,203,0.0,0.0,92,0.08,,,0.08,meteohub,2013-07-23 03:44:00,
2013-07-22 23:54:00,72.3,70.2,29.76,SSW,203,0.0,0.0,93,0.09,,,0.09,meteohub,2013-07-23 03:54:00,